createdAt,value
2017-05-30T00:00:35.994Z,75.75
2017-05-30T00:02:37.536Z,74.79
2017-05-30T00:04:39.567Z,74.49
2017-05-30T00:06:41.381Z,74.79
2017-05-30T00:08:43.152Z,75.33
2017-05-30T00:10:44.929Z,75.23
2017-05-30T00:12:46.672Z,74.75
2017-05-30T00:14:48.715Z,75.33
2017-05-30T00:16:50.623Z,74.49
2017-05-30T00:18:52.381Z,73.91
2017-05-30T00:20:54.120Z,74.11
2017-05-30T00:22:55.999Z,74.30
2017-05-30T00:24:57.744Z,73.33
2017-05-30T00:26:59.540Z,74.11
2017-05-30T00:29:01.111Z,73.43
2017-05-30T00:31:02.665Z,73.43
2017-05-30T00:33:04.568Z,72.79
2017-05-30T00:35:06.411Z,72.95
2017-05-30T00:37:08.218Z,72.50
2017-05-30T00:39:09.946Z,72.30
2017-05-30T00:41:11.731Z,72.21
2017-05-30T00:43:13.555Z,72.30
2017-05-30T00:45:15.330Z,71.72
2017-05-30T00:47:17.170Z,72.30
2017-05-30T00:49:19.019Z,71.82
2017-05-30T00:51:20.768Z,72.30
2017-05-30T00:53:22.620Z,72.21
2017-05-30T00:55:24.426Z,71.92
2017-05-30T00:57:26.205Z,71.44
2017-05-30T00:59:28.144Z,71.14
2017-05-30T01:01:29.931Z,70.56
2017-05-30T01:03:31.727Z,70.37
2017-05-30T01:05:33.448Z,70.86
2017-05-30T01:07:34.972Z,70.56
2017-05-30T01:09:36.594Z,71.30
2017-05-30T01:11:38.168Z,70.66
2017-05-30T01:13:39.902Z,71.30
2017-05-30T01:15:41.659Z,71.30
2017-05-30T01:17:43.214Z,71.78
2017-05-30T01:19:45.215Z,71.88
2017-05-30T01:21:46.900Z,72.27
2017-05-30T01:23:48.755Z,72.36
2017-05-30T01:25:50.307Z,72.46
2017-05-30T01:27:52.037Z,72.75
2017-05-30T01:29:54.010Z,72.36
2017-05-30T01:31:55.937Z,72.56
2017-05-30T01:33:57.695Z,73.01
2017-05-30T01:35:59.536Z,73.59
2017-05-30T01:38:01.289Z,73.68
2017-05-30T01:40:03.084Z,73.49
2017-05-30T01:42:04.868Z,73.30
2017-05-30T01:44:06.750Z,73.39
2017-05-30T01:46:08.415Z,73.49
2017-05-30T01:48:09.988Z,73.01
2017-05-30T01:50:11.535Z,73.68
2017-05-30T01:52:13.268Z,73.88
2017-05-30T01:54:15.196Z,74.23
2017-05-30T01:56:16.958Z,74.81
2017-05-30T01:58:18.503Z,75.10
2017-05-30T02:00:20.512Z,75.00
2017-05-30T02:02:22.423Z,75.20
2017-05-30T02:04:24.261Z,75.10
2017-05-30T02:06:26.089Z,75.58
2017-05-30T02:08:27.976Z,75.78
2017-05-30T02:10:29.755Z,75.93
2017-05-30T02:12:31.477Z,75.64
2017-05-30T02:14:33.285Z,76.42
2017-05-30T02:16:34.842Z,76.42
2017-05-30T02:18:36.713Z,76.42
2017-05-30T02:20:38.486Z,77.00
2017-05-30T02:22:40.492Z,76.42
2017-05-30T02:24:42.097Z,76.32
2017-05-30T02:26:43.734Z,76.80
2017-05-30T02:28:45.395Z,77.53
2017-05-30T02:30:47.013Z,78.02
2017-05-30T02:32:48.770Z,78.79
2017-05-30T02:34:50.729Z,78.41
2017-05-30T02:36:52.538Z,78.59
2017-05-30T02:38:54.359Z,78.59
2017-05-30T02:40:55.881Z,78.94
2017-05-30T02:42:57.676Z,79.04
2017-05-30T02:44:59.509Z,78.79
2017-05-30T02:47:01.102Z,78.75
2017-05-30T02:49:02.848Z,77.78
2017-05-30T02:51:04.940Z,77.83
2017-05-30T02:53:06.750Z,77.78
2017-05-30T02:55:08.565Z,77.88
2017-05-30T02:57:10.144Z,78.27
2017-05-30T02:59:11.933Z,77.30
2017-05-30T03:01:13.675Z,77.11
2017-05-30T03:03:15.877Z,76.82
2017-05-30T03:05:17.647Z,77.01
2017-05-30T03:07:19.565Z,76.34
2017-05-30T03:09:21.685Z,76.53
2017-05-30T03:11:23.244Z,76.72
2017-05-30T03:13:24.900Z,76.82
2017-05-30T03:15:26.894Z,77.30
2017-05-30T03:17:28.694Z,77.30
2017-05-30T03:19:30.285Z,77.94
2017-05-30T03:21:32.041Z,78.03
2017-05-30T03:23:34.051Z,78.42
2017-05-30T03:25:35.677Z,78.52
2017-05-30T03:27:37.427Z,78.91
2017-05-30T03:29:39.406Z,78.61
2017-05-30T03:31:41.438Z,78.71
2017-05-30T03:33:43.100Z,78.42
2017-05-30T03:35:44.828Z,78.42
2017-05-30T03:37:46.492Z,77.75
2017-05-30T03:39:48.087Z,77.84
2017-05-30T03:41:50.066Z,77.26
2017-05-30T03:43:51.918Z,77.46
2017-05-30T03:45:53.939Z,77.46
2017-05-30T03:47:55.437Z,78.71
2017-05-30T03:49:57.289Z,78.13
2017-05-30T03:51:59.645Z,78.33
2017-05-30T03:54:01.383Z,78.03
2017-05-30T03:56:02.990Z,78.61
2017-05-30T03:58:04.786Z,78.29
2017-05-30T04:00:06.712Z,78.58
2017-05-30T04:02:08.709Z,79.25
2017-05-30T04:04:10.277Z,79.54
2017-05-30T04:06:11.956Z,80.02
2017-05-30T04:08:13.808Z,80.12
2017-05-30T04:10:15.795Z,78.96
2017-05-30T04:12:17.574Z,79.19
2017-05-30T04:14:19.359Z,78.52
2017-05-30T04:16:21.376Z,78.52
2017-05-30T04:18:23.151Z,78.61
2017-05-30T04:20:24.905Z,78.52
2017-05-30T04:22:26.738Z,78.23
2017-05-30T04:24:28.409Z,77.94
2017-05-30T04:26:30.384Z,77.65
2017-05-30T04:28:32.396Z,78.19
2017-05-30T04:30:34.018Z,78.71
2017-05-30T04:32:35.976Z,77.84
2017-05-30T04:34:37.752Z,78.42
2017-05-30T04:36:39.509Z,78.23
2017-05-30T04:38:41.288Z,78.71
2017-05-30T04:40:43.049Z,78.52
2017-05-30T04:42:45.165Z,78.61
2017-05-30T04:44:46.960Z,78.52
2017-05-30T04:46:48.547Z,79.25
2017-05-30T04:48:50.183Z,79.35
2017-05-30T04:50:52.142Z,79.35
2017-05-30T04:52:53.931Z,78.91
2017-05-30T04:54:55.707Z,78.33
2017-05-30T04:56:57.445Z,78.13
2017-05-30T04:58:59.199Z,78.19
2017-05-30T05:01:01.123Z,78.67
2017-05-30T05:03:02.931Z,78.09
2017-05-30T05:05:04.518Z,77.71
2017-05-30T05:07:06.491Z,77.42
2017-05-30T05:09:08.020Z,76.36
2017-05-30T05:11:09.560Z,76.17
2017-05-30T05:13:11.379Z,76.50
2017-05-30T05:15:13.262Z,76.45
2017-05-30T05:17:14.865Z,75.68
2017-05-30T05:19:16.637Z,75.68
2017-05-30T05:21:18.422Z,74.82
2017-05-30T05:23:20.642Z,75.49
2017-05-30T05:25:22.215Z,76.07
2017-05-30T05:27:24.143Z,75.49
2017-05-30T05:29:26.134Z,75.49
2017-05-30T05:31:28.001Z,75.49
2017-05-30T05:33:29.949Z,74.91
2017-05-30T05:35:31.793Z,74.82
2017-05-30T05:37:33.639Z,74.95
2017-05-30T05:39:35.660Z,72.86
2017-05-30T05:41:37.397Z,72.96
2017-05-30T05:43:39.495Z,71.70
2017-05-30T05:45:41.310Z,69.65
2017-05-30T05:47:42.863Z,68.78
2017-05-30T05:49:44.418Z,68.78
2017-05-30T05:51:45.968Z,68.14
2017-05-30T05:53:47.552Z,67.27
2017-05-30T05:55:49.089Z,67.75
2017-05-30T05:57:50.910Z,66.88
2017-05-30T05:59:52.727Z,65.92
2017-05-30T06:01:54.291Z,64.43
2017-05-30T06:03:56.097Z,61.01
2017-05-30T06:05:57.819Z,59.39
2017-05-30T06:07:59.726Z,56.96
2017-05-30T06:10:01.505Z,53.74
2017-05-30T06:12:03.582Z,50.38
2017-05-30T06:14:05.362Z,49.83
2017-05-30T06:16:07.432Z,49.49
2017-05-30T06:18:09.365Z,50.73
2017-05-30T06:20:11.090Z,53.20
2017-05-30T06:22:12.650Z,55.69
2017-05-30T06:24:14.194Z,55.41
2017-05-30T06:26:15.777Z,54.17
2017-05-30T06:28:17.355Z,53.52
2017-05-30T06:30:18.931Z,50.92
2017-05-30T06:32:20.492Z,50.36
2017-05-30T06:34:22.024Z,49.51
2017-05-30T06:36:24.016Z,49.02
2017-05-30T06:38:25.604Z,46.78
2017-05-30T06:40:27.372Z,44.31
2017-05-30T06:42:29.081Z,42.29
2017-05-30T06:44:31.201Z,42.11
2017-05-30T06:46:33.092Z,41.35
2017-05-30T06:48:34.946Z,40.86
2017-05-30T06:50:36.462Z,41.80
2017-05-30T06:52:38.002Z,42.16
2017-05-30T06:54:39.541Z,42.94
2017-05-30T06:56:41.381Z,42.77
2017-05-30T06:58:42.922Z,42.48
2017-05-30T07:00:44.482Z,43.68
2017-05-30T07:02:46.071Z,46.91
2017-05-30T07:04:47.607Z,50.95
2017-05-30T07:06:49.532Z,52.74
2017-05-30T07:08:51.431Z,54.99
2017-05-30T07:10:52.994Z,57.71
2017-05-30T07:12:54.556Z,60.52
2017-05-30T07:14:56.382Z,60.30
2017-05-30T07:16:58.422Z,59.39
2017-05-30T07:19:00.000Z,59.42
2017-05-30T07:21:01.796Z,59.46
2017-05-30T07:23:03.381Z,61.49
2017-05-30T07:25:05.173Z,61.30
2017-05-30T07:27:06.993Z,61.18
2017-05-30T07:29:08.530Z,63.27
2017-05-30T07:31:10.447Z,63.46
2017-05-30T07:33:11.955Z,63.53
2017-05-30T07:35:13.463Z,64.27
2017-05-30T07:37:15.378Z,65.47
2017-05-30T07:39:17.302Z,66.33
2017-05-30T07:42:05.960Z,65.11
2017-05-30T07:44:50.873Z,64.24
2017-05-30T07:47:38.648Z,64.04
2017-05-30T07:50:27.537Z,62.88
2017-05-30T07:53:13.181Z,64.72
2017-05-30T07:55:56.856Z,65.30
2017-05-30T07:58:41.252Z,65.50
2017-05-30T08:01:25.694Z,64.04
2017-05-30T08:04:09.200Z,63.85
2017-05-30T08:06:56.387Z,65.30
2017-05-30T08:10:20.110Z,62.50
2017-05-30T08:12:22.197Z,62.11
2017-05-30T08:15:08.572Z,64.43
2017-05-30T08:17:51.439Z,61.82
2017-05-30T08:19:52.989Z,62.43
2017-05-30T08:22:40.136Z,62.30
2017-05-30T08:25:29.108Z,61.66
2017-05-30T08:28:13.626Z,62.82
2017-05-30T08:30:56.784Z,62.04
2017-05-30T08:33:41.371Z,61.69
2017-05-30T08:36:25.892Z,60.24
2017-05-30T08:39:51.741Z,59.75
2017-05-30T08:42:34.456Z,60.40
2017-05-30T08:45:18.361Z,61.46
2017-05-30T08:48:01.420Z,61.46
2017-05-30T08:50:50.645Z,61.14
2017-05-30T08:53:33.871Z,59.49
2017-05-30T08:56:18.477Z,59.69
2017-05-30T08:59:12.771Z,60.75
2017-05-30T09:01:57.838Z,56.49
2017-05-30T09:04:42.307Z,58.55
2017-05-30T09:06:45.625Z,56.10
2017-05-30T09:09:30.127Z,58.42
2017-05-30T09:11:31.717Z,59.00
2017-05-30T09:14:13.428Z,59.07
2017-05-30T09:17:37.887Z,59.10
2017-05-30T09:20:21.834Z,59.20
2017-05-30T09:23:06.887Z,59.03
2017-05-30T09:27:11.495Z,59.45
2017-05-30T09:29:13.790Z,58.70
2017-05-30T09:31:57.617Z,56.09
2017-05-30T09:33:59.445Z,57.08
2017-05-30T09:36:01.063Z,56.70
2017-05-30T09:38:02.614Z,56.11
2017-05-30T09:40:04.264Z,55.53
2017-05-30T09:42:06.201Z,56.18
2017-05-30T09:44:08.103Z,56.45
2017-05-30T09:46:09.882Z,57.03
2017-05-30T09:48:11.793Z,57.48
2017-05-30T09:50:14.222Z,57.09
2017-05-30T09:52:16.546Z,59.13
2017-05-30T09:54:18.490Z,58.84
2017-05-30T09:56:20.350Z,59.03
2017-05-30T09:58:22.258Z,59.33
2017-05-30T10:00:24.247Z,59.06
2017-05-30T10:02:26.235Z,58.29
2017-05-30T10:04:28.106Z,56.15
2017-05-30T10:06:30.496Z,58.00
2017-05-30T10:08:32.343Z,57.90
2017-05-30T10:10:34.171Z,57.61
2017-05-30T10:12:35.975Z,56.15
2017-05-30T10:14:38.498Z,56.05
2017-05-30T10:16:40.361Z,55.38
2017-05-30T10:18:42.221Z,56.41
2017-05-30T10:20:44.095Z,56.03
2017-05-30T10:22:46.007Z,56.23
2017-05-30T10:24:48.493Z,55.83
2017-05-30T10:26:50.309Z,55.71
2017-05-30T10:28:52.580Z,56.87
2017-05-30T10:31:35.582Z,56.68
2017-05-30T10:33:37.794Z,56.39
2017-05-30T10:35:39.833Z,57.75
2017-05-30T10:37:41.505Z,55.71
2017-05-30T10:39:43.844Z,56.10
2017-05-30T10:41:45.677Z,56.59
2017-05-30T10:43:48.067Z,55.71
2017-05-30T10:45:50.061Z,57.17
2017-05-30T10:47:51.876Z,57.26
2017-05-30T10:49:53.720Z,57.45
2017-05-30T10:51:55.500Z,56.87
2017-05-30T10:53:57.386Z,56.32
2017-05-30T10:55:59.183Z,55.42
2017-05-30T10:58:01.073Z,55.81
2017-05-30T11:00:02.992Z,56.97
2017-05-30T11:02:04.814Z,55.54
2017-05-30T11:04:49.436Z,54.96
2017-05-30T11:06:51.176Z,55.16
2017-05-30T11:08:52.991Z,55.08
2017-05-30T11:10:54.601Z,53.92
2017-05-30T11:12:56.266Z,54.50
2017-05-30T11:15:38.992Z,55.93
2017-05-30T11:17:40.721Z,56.03
2017-05-30T11:20:23.135Z,54.80
2017-05-30T11:22:24.842Z,55.60
2017-05-30T11:24:26.695Z,53.66
2017-05-30T11:26:28.473Z,55.11
2017-05-30T11:28:30.420Z,55.31
2017-05-30T11:30:32.298Z,55.31
2017-05-30T11:32:34.220Z,54.05
2017-05-30T11:34:36.036Z,55.21
2017-05-30T11:36:37.903Z,55.63
2017-05-30T11:38:39.819Z,54.07
2017-05-30T11:41:22.557Z,53.37
2017-05-30T11:44:05.162Z,51.21
2017-05-30T11:46:06.623Z,52.73
2017-05-30T11:48:08.310Z,52.25
2017-05-30T11:50:09.971Z,53.41
2017-05-30T11:52:12.601Z,54.26
2017-05-30T11:54:14.512Z,52.73
2017-05-30T11:56:16.343Z,52.71
2017-05-30T11:58:18.051Z,53.58
2017-05-30T12:01:02.125Z,54.09
2017-05-30T12:03:03.561Z,53.89
2017-05-30T12:05:05.412Z,53.31
2017-05-30T12:07:07.154Z,53.02
2017-05-30T12:09:09.177Z,52.64
2017-05-30T12:11:10.900Z,51.96
2017-05-30T12:13:12.732Z,52.25
2017-05-30T12:15:14.738Z,52.64
2017-05-30T12:17:16.471Z,52.73
2017-05-30T12:19:18.398Z,50.70
2017-05-30T12:21:20.266Z,52.54
2017-05-30T12:23:21.964Z,52.73
2017-05-30T12:25:23.977Z,53.87
2017-05-30T12:27:25.752Z,55.74
2017-05-30T12:29:27.542Z,55.26
2017-05-30T12:31:29.039Z,54.58
2017-05-30T12:33:30.545Z,55.44
2017-05-30T12:35:32.874Z,53.99
2017-05-30T12:37:34.405Z,54.09
2017-05-30T12:39:35.922Z,52.64
2017-05-30T12:41:37.457Z,54.50
2017-05-30T12:43:38.969Z,53.17
2017-05-30T12:45:40.509Z,51.43
2017-05-30T12:47:42.114Z,51.31
2017-05-30T12:49:44.094Z,51.89
2017-05-30T12:51:46.861Z,51.79
2017-05-30T12:53:49.174Z,51.69
2017-05-30T12:55:50.822Z,50.82
2017-05-30T12:57:52.355Z,52.08
2017-05-30T12:59:53.876Z,51.28
2017-05-30T13:01:55.416Z,51.76
2017-05-30T13:03:56.931Z,52.83
2017-05-30T13:05:59.223Z,53.89
2017-05-30T13:08:01.113Z,52.64
2017-05-30T13:10:03.445Z,53.83
2017-05-30T13:12:05.689Z,51.01
2017-05-30T13:14:07.860Z,51.62
2017-05-30T13:16:09.782Z,51.93
2017-05-30T13:18:11.757Z,53.42
2017-05-30T13:20:13.897Z,49.34
2017-05-30T13:22:15.405Z,46.60
2017-05-30T13:24:16.917Z,48.93
2017-05-30T13:26:18.905Z,48.15
2017-05-30T13:28:21.051Z,48.15
2017-05-30T13:30:23.158Z,49.99
2017-05-30T13:32:25.207Z,47.64
2017-05-30T13:34:27.540Z,49.00
2017-05-30T13:36:29.156Z,50.36
2017-05-30T13:38:30.782Z,49.39
2017-05-30T13:40:32.618Z,49.19
2017-05-30T13:42:34.886Z,50.65
2017-05-30T13:44:37.342Z,50.16
2017-05-30T13:46:39.558Z,48.83
2017-05-30T13:48:41.843Z,49.39
2017-05-30T13:50:44.191Z,49.00
2017-05-30T13:52:46.111Z,49.80
2017-05-30T13:54:48.135Z,49.32
2017-05-30T13:56:49.752Z,49.37
2017-05-30T13:58:51.620Z,48.88
2017-05-30T14:00:53.135Z,47.71
2017-05-30T14:02:54.748Z,48.00
2017-05-30T14:04:56.226Z,47.20
2017-05-30T14:06:57.726Z,47.28
2017-05-30T14:08:59.213Z,47.83
2017-05-30T14:11:01.565Z,49.97
2017-05-30T14:13:03.167Z,49.56
2017-05-30T14:15:04.650Z,51.21
2017-05-30T14:17:06.869Z,50.14
2017-05-30T14:19:08.714Z,49.85
2017-05-30T14:21:10.295Z,49.44
2017-05-30T14:23:12.666Z,50.12
2017-05-30T14:25:14.815Z,50.04
2017-05-30T14:27:16.350Z,48.10
2017-05-30T14:29:17.826Z,48.95
2017-05-30T14:31:19.309Z,49.92
2017-05-30T14:33:21.187Z,49.82
2017-05-30T14:35:22.689Z,52.44
2017-05-30T14:37:24.304Z,50.79
2017-05-30T14:39:26.645Z,49.82
2017-05-30T14:41:28.633Z,51.57
2017-05-30T14:43:30.833Z,52.44
2017-05-30T14:45:32.363Z,51.74
2017-05-30T14:47:34.252Z,53.58
2017-05-30T14:49:36.364Z,52.90
2017-05-30T14:51:38.569Z,52.64
2017-05-30T14:53:40.464Z,52.73
2017-05-30T14:55:42.518Z,52.86
2017-05-30T14:57:44.067Z,52.50
2017-05-30T14:59:46.255Z,52.78
2017-05-30T15:01:48.295Z,52.03
2017-05-30T15:03:49.883Z,49.99
2017-05-30T15:05:51.370Z,48.18
2017-05-30T15:07:53.518Z,48.73
2017-05-30T15:09:55.200Z,48.25
2017-05-30T15:11:57.367Z,50.07
2017-05-30T15:13:58.993Z,49.58
2017-05-30T15:16:00.457Z,50.62
2017-05-30T15:18:02.321Z,51.01
2017-05-30T15:20:03.807Z,51.01
2017-05-30T15:22:05.329Z,50.72
2017-05-30T15:24:06.836Z,51.59
2017-05-30T15:26:08.743Z,52.66
2017-05-30T15:28:10.862Z,53.08
2017-05-30T15:30:13.037Z,53.37
2017-05-30T15:32:15.134Z,52.03
2017-05-30T15:34:17.136Z,51.62
2017-05-30T15:36:19.516Z,52.98
2017-05-30T15:38:21.791Z,52.78
2017-05-30T15:40:23.261Z,53.27
2017-05-30T15:42:25.317Z,52.20
2017-05-30T15:44:27.322Z,52.69
2017-05-30T15:46:30.278Z,52.88
2017-05-30T15:48:32.565Z,53.75
2017-05-30T15:50:34.622Z,53.27
2017-05-30T15:52:36.600Z,53.92
2017-05-30T15:54:38.102Z,53.44
2017-05-30T15:56:39.727Z,53.73
2017-05-30T15:58:41.205Z,54.80
2017-05-30T16:00:43.135Z,54.70
2017-05-30T16:02:44.583Z,54.19
2017-05-30T16:04:46.585Z,53.89
2017-05-30T16:06:48.477Z,54.77
2017-05-30T16:08:49.974Z,55.71
2017-05-30T16:10:51.589Z,56.13
2017-05-30T16:12:53.569Z,55.83
2017-05-30T16:14:55.085Z,55.83
2017-05-30T16:16:56.741Z,55.57
2017-05-30T16:18:58.314Z,54.11
2017-05-30T16:20:59.772Z,53.34
2017-05-30T16:23:01.874Z,52.54
2017-05-30T16:25:03.862Z,52.44
2017-05-30T16:27:05.800Z,52.44
2017-05-30T16:29:07.297Z,53.51
2017-05-30T16:31:08.787Z,53.99
2017-05-30T16:33:11.168Z,53.70
2017-05-30T16:35:13.149Z,53.89
2017-05-30T16:37:15.069Z,53.22
2017-05-30T16:39:16.580Z,53.31
2017-05-30T16:41:18.063Z,53.02
2017-05-30T16:43:20.295Z,53.41
2017-05-30T16:45:21.793Z,52.54
2017-05-30T16:47:23.410Z,52.22
2017-05-30T16:49:25.143Z,52.12
2017-05-30T16:51:27.516Z,52.61
2017-05-30T16:53:29.023Z,52.12
2017-05-30T16:55:31.135Z,52.71
2017-05-30T16:57:33.097Z,51.64
2017-05-30T16:59:35.510Z,52.87
2017-05-30T17:01:37.510Z,52.58
2017-05-30T17:03:38.977Z,53.55
2017-05-30T17:05:41.344Z,52.58
2017-05-30T17:07:43.349Z,52.87
2017-05-30T17:09:44.873Z,52.78
2017-05-30T17:11:47.149Z,52.87
2017-05-30T17:13:48.683Z,53.14
2017-05-30T17:15:50.919Z,53.23
2017-05-30T17:17:52.880Z,53.91
2017-05-30T17:19:54.430Z,52.17
2017-05-30T17:21:55.932Z,53.14
2017-05-30T17:23:58.150Z,53.79
2017-05-30T17:26:00.202Z,53.63
2017-05-30T17:28:02.410Z,53.21
2017-05-30T17:30:04.829Z,50.79
2017-05-30T17:32:06.772Z,50.98
2017-05-30T17:34:09.290Z,50.70
2017-05-30T17:36:10.829Z,50.79
2017-05-30T17:38:12.318Z,51.47
2017-05-30T17:40:14.596Z,50.98
2017-05-30T17:42:16.652Z,50.89
2017-05-30T17:44:18.199Z,50.86
2017-05-30T17:46:20.113Z,50.67
2017-05-30T17:48:22.361Z,51.06
2017-05-30T17:50:23.855Z,51.54
2017-05-30T17:52:26.029Z,51.73
2017-05-30T17:54:28.335Z,51.25
2017-05-30T17:56:30.587Z,50.86
2017-05-30T17:58:32.051Z,50.57
2017-05-30T18:00:33.542Z,50.57
2017-05-30T18:02:35.119Z,51.06
2017-05-30T18:04:36.622Z,50.67
2017-05-30T18:06:39.246Z,50.76
2017-05-30T18:08:41.456Z,50.55
2017-05-30T18:10:43.493Z,50.93
2017-05-30T18:12:45.579Z,51.03
2017-05-30T18:14:47.126Z,50.55
2017-05-30T18:16:48.606Z,51.81
2017-05-30T18:18:50.891Z,51.81
2017-05-30T18:20:52.969Z,51.59
2017-05-30T18:22:55.119Z,52.07
2017-05-30T18:24:56.664Z,52.00
2017-05-30T18:26:58.907Z,52.65
2017-05-30T18:29:00.371Z,52.45
2017-05-30T18:31:03.162Z,52.55
2017-05-30T18:33:04.672Z,51.87
2017-05-30T18:35:06.194Z,52.45
2017-05-30T18:37:07.656Z,52.55
2017-05-30T18:39:09.219Z,53.20
2017-05-30T18:41:10.721Z,53.11
2017-05-30T18:43:12.574Z,53.69
2017-05-30T18:45:14.472Z,53.39
2017-05-30T18:47:16.662Z,53.30
2017-05-30T18:49:18.681Z,53.11
2017-05-30T18:51:20.233Z,53.47
2017-05-30T18:53:22.393Z,53.56
2017-05-30T18:55:24.535Z,52.50
2017-05-30T18:57:26.675Z,52.11
2017-05-30T18:59:28.198Z,50.67
2017-05-30T19:01:29.678Z,51.25
2017-05-30T19:03:31.519Z,50.86
2017-05-30T19:05:33.517Z,50.74
2017-05-30T19:07:34.972Z,50.54
2017-05-30T19:09:36.486Z,50.84
2017-05-30T19:11:37.997Z,51.10
2017-05-30T19:13:39.454Z,50.54
2017-05-30T19:15:41.655Z,51.12
2017-05-30T19:17:43.830Z,51.48
2017-05-30T19:19:45.284Z,51.77
2017-05-30T19:21:46.763Z,49.65
2017-05-30T19:23:48.815Z,49.94
2017-05-30T19:25:50.264Z,49.07
2017-05-30T19:27:51.740Z,49.65
2017-05-30T19:29:54.036Z,48.38
2017-05-30T19:31:55.374Z,49.05
2017-05-30T19:33:56.955Z,49.43
2017-05-30T19:35:58.830Z,49.53
2017-05-30T19:38:01.071Z,49.73
2017-05-30T19:40:02.607Z,49.91
2017-05-30T19:42:04.111Z,50.01
2017-05-30T19:44:05.615Z,49.99
2017-05-30T19:46:07.090Z,49.99
2017-05-30T19:48:08.641Z,50.18
2017-05-30T19:50:10.083Z,50.85
2017-05-30T19:52:11.618Z,51.05
2017-05-30T19:54:13.218Z,51.14
2017-05-30T19:56:15.411Z,51.53
2017-05-30T19:58:17.368Z,51.60
2017-05-30T20:00:18.882Z,52.08
2017-05-30T20:02:20.386Z,52.27
2017-05-30T20:04:22.544Z,52.95
2017-05-30T20:06:24.073Z,53.62
2017-05-30T20:08:26.210Z,53.14
2017-05-30T20:10:27.819Z,53.43
2017-05-30T20:12:29.277Z,53.43
2017-05-30T20:14:30.709Z,53.14
2017-05-30T20:16:32.295Z,53.43
2017-05-30T20:18:33.766Z,53.72
2017-05-30T20:20:36.075Z,54.30
2017-05-30T20:22:37.691Z,53.53
2017-05-30T20:24:39.651Z,53.53
2017-05-30T20:26:42.090Z,53.53
2017-05-30T20:28:43.797Z,53.62
2017-05-30T20:30:46.509Z,53.72
2017-05-30T20:32:48.563Z,53.43
2017-05-30T20:34:50.068Z,53.23
2017-05-30T20:36:51.554Z,53.62
2017-05-30T20:38:53.616Z,52.95
2017-05-30T20:40:55.614Z,53.23
2017-05-30T20:42:57.717Z,53.27
2017-05-30T20:44:59.267Z,53.17
2017-05-30T20:47:00.753Z,52.97
2017-05-30T20:49:02.243Z,52.69
2017-05-30T20:51:03.736Z,52.85
2017-05-30T20:53:05.782Z,53.23
2017-05-30T20:55:07.341Z,53.55
2017-05-30T20:57:08.864Z,52.87
2017-05-30T20:59:10.955Z,52.87
2017-05-30T21:01:12.488Z,53.07
2017-05-30T21:03:14.035Z,53.45
2017-05-30T21:05:16.372Z,53.62
2017-05-30T21:07:18.184Z,54.39
2017-05-30T21:09:19.723Z,54.30
2017-05-30T21:11:21.135Z,54.58
2017-05-30T21:13:22.823Z,54.10
2017-05-30T21:15:25.074Z,54.10
2017-05-30T21:17:26.501Z,54.49
2017-05-30T21:19:27.985Z,54.49
2017-05-30T21:21:29.465Z,55.16
2017-05-30T21:23:31.553Z,54.68
2017-05-30T21:25:33.105Z,55.55
2017-05-30T21:27:34.720Z,54.58
2017-05-30T21:29:36.977Z,55.26
2017-05-30T21:31:38.434Z,55.71
2017-05-30T21:33:39.922Z,55.71
2017-05-30T21:35:41.819Z,56.10
2017-05-30T21:37:43.801Z,55.81
2017-05-30T21:39:45.797Z,56.10
2017-05-30T21:41:47.951Z,56.03
2017-05-30T21:43:49.483Z,55.74
2017-05-30T21:45:50.999Z,56.20
2017-05-30T21:47:52.460Z,56.51
2017-05-30T21:49:54.757Z,56.12
2017-05-30T21:51:56.823Z,56.12
2017-05-30T21:53:58.999Z,56.77
2017-05-30T21:56:01.001Z,56.77
2017-05-30T21:58:02.933Z,57.35
2017-05-30T22:00:05.173Z,57.83
2017-05-30T22:02:07.377Z,57.45
2017-05-30T22:04:09.197Z,57.73
2017-05-30T22:06:11.110Z,57.45
2017-05-30T22:08:13.331Z,58.60
2017-05-30T22:10:14.838Z,58.86
2017-05-30T22:12:16.292Z,58.76
2017-05-30T22:14:17.827Z,59.34
2017-05-30T22:16:19.593Z,58.76
2017-05-30T22:18:21.158Z,58.76
2017-05-30T22:20:23.412Z,58.95
2017-05-30T22:22:25.622Z,59.22
2017-05-30T22:24:27.890Z,59.22
2017-05-30T22:26:29.344Z,59.41
2017-05-30T22:28:30.842Z,59.60
2017-05-30T22:30:32.429Z,59.41
2017-05-30T22:32:34.434Z,59.22
2017-05-30T22:34:35.966Z,59.12
2017-05-30T22:36:37.451Z,59.50
2017-05-30T22:38:39.000Z,59.69
2017-05-30T22:40:40.686Z,59.89
2017-05-30T22:42:42.810Z,59.79
2017-05-30T22:44:44.304Z,60.37
2017-05-30T22:46:45.768Z,60.17
2017-05-30T22:48:47.410Z,60.56
2017-05-30T22:50:49.512Z,60.56
2017-05-30T22:52:51.029Z,60.56
2017-05-30T22:54:52.614Z,59.69
2017-05-30T22:56:54.263Z,60.17
2017-05-30T22:58:55.760Z,60.66
2017-05-30T23:00:58.015Z,60.37
2017-05-30T23:02:59.541Z,61.14
2017-05-30T23:05:01.674Z,60.56
2017-05-30T23:07:03.642Z,60.27
2017-05-30T23:09:05.994Z,61.04
2017-05-30T23:11:07.587Z,60.72
2017-05-30T23:13:09.076Z,60.82
2017-05-30T23:15:10.620Z,61.20
2017-05-30T23:17:12.101Z,61.87
2017-05-30T23:19:14.314Z,61.78
2017-05-30T23:21:15.852Z,62.35
2017-05-30T23:23:17.932Z,61.78
2017-05-30T23:25:19.437Z,62.26
2017-05-30T23:27:21.030Z,61.78
2017-05-30T23:29:22.467Z,62.35
2017-05-30T23:31:24.048Z,62.16
2017-05-30T23:33:25.718Z,62.26
2017-05-30T23:35:27.709Z,62.16
2017-05-30T23:37:29.195Z,62.74
2017-05-30T23:39:30.674Z,62.99
2017-05-30T23:41:32.174Z,63.28
2017-05-30T23:43:34.373Z,63.67
2017-05-30T23:45:36.443Z,63.86
2017-05-30T23:47:38.437Z,63.76
2017-05-30T23:49:39.904Z,63.96
2017-05-30T23:51:41.402Z,64.05
2017-05-30T23:53:43.425Z,64.34
2017-05-30T23:55:44.854Z,63.96
2017-05-30T23:57:46.512Z,63.67
2017-05-30T23:59:47.947Z,63.67
